sensor_id;sensor_type;location;lat;lon;timestamp;temperature;humidity
6964;DHT22;3522;50.856;7.278;2023-12-29T00:00:34;9.30;99.90
6964;DHT22;3522;50.856;7.278;2023-12-29T00:03:01;9.30;99.90
6964;DHT22;3522;50.856;7.278;2023-12-29T00:05:27;9.30;99.90
6964;DHT22;3522;50.856;7.278;2023-12-29T00:07:54;9.30;99.90
6964;DHT22;3522;50.856;7.278;2023-12-29T00:10:22;9.30;99.90
6964;DHT22;3522;50.856;7.278;2023-12-29T00:12:49;9.20;99.90
6964;DHT22;3522;50.856;7.278;2023-12-29T00:15:17;9.20;99.90
6964;DHT22;3522;50.856;7.278;2023-12-29T00:17:43;9.20;99.90
6964;DHT22;3522;50.856;7.278;2023-12-29T00:20:10;9.20;99.90
6964;DHT22;3522;50.856;7.278;2023-12-29T00:22:36;9.10;99.90
6964;DHT22;3522;50.856;7.278;2023-12-29T00:25:03;9.10;99.90
6964;DHT22;3522;50.856;7.278;2023-12-29T00:27:32;9.20;99.90
6964;DHT22;3522;50.856;7.278;2023-12-29T00:29:58;9.20;99.90
6964;DHT22;3522;50.856;7.278;2023-12-29T00:32:25;9.20;99.90
6964;DHT22;3522;50.856;7.278;2023-12-29T00:34:51;9.20;99.90
6964;DHT22;3522;50.856;7.278;2023-12-29T00:37:18;9.20;99.90
6964;DHT22;3522;50.856;7.278;2023-12-29T00:39:44;9.30;99.90
6964;DHT22;3522;50.856;7.278;2023-12-29T00:42:11;9.30;99.90
6964;DHT22;3522;50.856;7.278;2023-12-29T00:44:39;9.30;99.90
6964;DHT22;3522;50.856;7.278;2023-12-29T00:47:05;9.30;99.90
6964;DHT22;3522;50.856;7.278;2023-12-29T00:49:32;9.30;99.90
6964;DHT22;3522;50.856;7.278;2023-12-29T00:51:58;9.40;99.90
6964;DHT22;3522;50.856;7.278;2023-12-29T00:54:25;9.40;99.90
6964;DHT22;3522;50.856;7.278;2023-12-29T00:56:51;9.40;99.90
6964;DHT22;3522;50.856;7.278;2023-12-29T00:59:18;9.40;99.90
6964;DHT22;3522;50.856;7.278;2023-12-29T01:01:46;9.40;99.90
6964;DHT22;3522;50.856;7.278;2023-12-29T01:04:13;9.40;99.90
6964;DHT22;3522;50.856;7.278;2023-12-29T01:06:40;9.40;99.90
6964;DHT22;3522;50.856;7.278;2023-12-29T01:09:06;9.40;99.90
6964;DHT22;3522;50.856;7.278;2023-12-29T01:11:34;9.30;99.90
6964;DHT22;3522;50.856;7.278;2023-12-29T01:14:00;9.30;99.90
6964;DHT22;3522;50.856;7.278;2023-12-29T01:16:27;9.30;99.90
6964;DHT22;3522;50.856;7.278;2023-12-29T01:18:55;9.30;99.90
6964;DHT22;3522;50.856;7.278;2023-12-29T01:21:21;9.30;99.90
6964;DHT22;3522;50.856;7.278;2023-12-29T01:23:48;9.30;99.90
6964;DHT22;3522;50.856;7.278;2023-12-29T01:26:14;9.30;99.90
6964;DHT22;3522;50.856;7.278;2023-12-29T01:28:41;9.30;99.90
6964;DHT22;3522;50.856;7.278;2023-12-29T01:31:07;9.30;99.90
6964;DHT22;3522;50.856;7.278;2023-12-29T01:33:36;9.30;99.90
6964;DHT22;3522;50.856;7.278;2023-12-29T01:36:04;9.40;99.90
6964;DHT22;3522;50.856;7.278;2023-12-29T01:38:31;9.40;99.90
6964;DHT22;3522;50.856;7.278;2023-12-29T01:40:57;9.40;99.90
6964;DHT22;3522;50.856;7.278;2023-12-29T01:43:24;9.40;99.90
6964;DHT22;3522;50.856;7.278;2023-12-29T01:45:50;9.40;99.90
6964;DHT22;3522;50.856;7.278;2023-12-29T01:48:17;9.40;99.90
6964;DHT22;3522;50.856;7.278;2023-12-29T01:50:44;9.50;99.90
6964;DHT22;3522;50.856;7.278;2023-12-29T01:53:12;9.50;99.90
6964;DHT22;3522;50.856;7.278;2023-12-29T01:55:39;9.50;99.90
6964;DHT22;3522;50.856;7.278;2023-12-29T01:58:05;9.60;99.90
6964;DHT22;3522;50.856;7.278;2023-12-29T02:00:32;9.60;99.90
6964;DHT22;3522;50.856;7.278;2023-12-29T02:02:59;9.60;99.90
6964;DHT22;3522;50.856;7.278;2023-12-29T02:05:26;9.60;99.90
6964;DHT22;3522;50.856;7.278;2023-12-29T02:07:52;9.60;99.90
6964;DHT22;3522;50.856;7.278;2023-12-29T02:10:20;9.60;99.90
6964;DHT22;3522;50.856;7.278;2023-12-29T02:12:47;9.60;99.90
6964;DHT22;3522;50.856;7.278;2023-12-29T02:15:14;9.70;99.90
6964;DHT22;3522;50.856;7.278;2023-12-29T02:17:43;9.70;99.90
6964;DHT22;3522;50.856;7.278;2023-12-29T02:20:10;9.70;99.90
6964;DHT22;3522;50.856;7.278;2023-12-29T02:22:37;9.70;99.90
6964;DHT22;3522;50.856;7.278;2023-12-29T02:25:05;9.70;99.90
6964;DHT22;3522;50.856;7.278;2023-12-29T02:27:34;9.70;99.90
6964;DHT22;3522;50.856;7.278;2023-12-29T02:30:08;9.70;99.90
6964;DHT22;3522;50.856;7.278;2023-12-29T02:32:36;9.80;99.90
6964;DHT22;3522;50.856;7.278;2023-12-29T02:35:04;9.70;99.90
6964;DHT22;3522;50.856;7.278;2023-12-29T02:37:32;9.70;99.90
6964;DHT22;3522;50.856;7.278;2023-12-29T02:40:00;9.70;99.90
6964;DHT22;3522;50.856;7.278;2023-12-29T02:42:28;9.70;99.90
6964;DHT22;3522;50.856;7.278;2023-12-29T02:44:54;9.70;99.90
6964;DHT22;3522;50.856;7.278;2023-12-29T02:47:21;9.70;99.90
6964;DHT22;3522;50.856;7.278;2023-12-29T02:49:48;9.70;99.90
6964;DHT22;3522;50.856;7.278;2023-12-29T02:52:15;9.70;99.90
6964;DHT22;3522;50.856;7.278;2023-12-29T02:54:42;9.80;99.90
6964;DHT22;3522;50.856;7.278;2023-12-29T02:57:08;9.80;99.90
6964;DHT22;3522;50.856;7.278;2023-12-29T02:59:36;9.80;99.90
6964;DHT22;3522;50.856;7.278;2023-12-29T03:02:03;9.80;99.90
6964;DHT22;3522;50.856;7.278;2023-12-29T03:04:30;9.90;99.90
6964;DHT22;3522;50.856;7.278;2023-12-29T03:06:56;9.90;99.90
6964;DHT22;3522;50.856;7.278;2023-12-29T03:09:23;9.90;99.90
6964;DHT22;3522;50.856;7.278;2023-12-29T03:11:49;10.00;99.90
6964;DHT22;3522;50.856;7.278;2023-12-29T03:14:16;10.00;99.90
6964;DHT22;3522;50.856;7.278;2023-12-29T03:16:44;10.00;99.90
6964;DHT22;3522;50.856;7.278;2023-12-29T03:19:10;10.00;99.90
6964;DHT22;3522;50.856;7.278;2023-12-29T03:21:37;10.00;99.90
6964;DHT22;3522;50.856;7.278;2023-12-29T03:24:03;10.10;99.90
6964;DHT22;3522;50.856;7.278;2023-12-29T03:26:30;10.10;99.90
6964;DHT22;3522;50.856;7.278;2023-12-29T03:28:57;10.10;99.90
6964;DHT22;3522;50.856;7.278;2023-12-29T03:31:23;10.10;99.90
6964;DHT22;3522;50.856;7.278;2023-12-29T03:33:51;10.10;99.90
6964;DHT22;3522;50.856;7.278;2023-12-29T03:36:18;10.20;99.90
6964;DHT22;3522;50.856;7.278;2023-12-29T03:38:44;10.20;99.90
6964;DHT22;3522;50.856;7.278;2023-12-29T03:41:11;10.20;99.90
6964;DHT22;3522;50.856;7.278;2023-12-29T03:43:37;10.20;99.90
6964;DHT22;3522;50.856;7.278;2023-12-29T03:46:14;10.20;99.90
6964;DHT22;3522;50.856;7.278;2023-12-29T03:48:41;10.20;99.90
6964;DHT22;3522;50.856;7.278;2023-12-29T03:51:08;10.20;99.90
6964;DHT22;3522;50.856;7.278;2023-12-29T03:53:35;10.20;99.90
6964;DHT22;3522;50.856;7.278;2023-12-29T03:56:03;10.20;99.90
6964;DHT22;3522;50.856;7.278;2023-12-29T03:58:30;10.30;99.90
6964;DHT22;3522;50.856;7.278;2023-12-29T04:00:56;10.20;99.90
6964;DHT22;3522;50.856;7.278;2023-12-29T04:03:23;10.20;99.90
6964;DHT22;3522;50.856;7.278;2023-12-29T04:05:49;10.30;99.90
6964;DHT22;3522;50.856;7.278;2023-12-29T04:08:17;10.20;99.90
6964;DHT22;3522;50.856;7.278;2023-12-29T04:10:44;10.20;99.90
6964;DHT22;3522;50.856;7.278;2023-12-29T04:13:10;10.20;99.90
6964;DHT22;3522;50.856;7.278;2023-12-29T04:15:37;10.20;99.90
6964;DHT22;3522;50.856;7.278;2023-12-29T04:18:04;10.20;99.90
6964;DHT22;3522;50.856;7.278;2023-12-29T04:20:30;10.20;99.90
6964;DHT22;3522;50.856;7.278;2023-12-29T04:22:57;10.20;99.90
6964;DHT22;3522;50.856;7.278;2023-12-29T04:25:26;10.20;99.90
6964;DHT22;3522;50.856;7.278;2023-12-29T04:27:52;10.20;99.90
6964;DHT22;3522;50.856;7.278;2023-12-29T04:30:19;10.20;99.90
6964;DHT22;3522;50.856;7.278;2023-12-29T04:32:45;10.20;99.90
6964;DHT22;3522;50.856;7.278;2023-12-29T04:35:12;10.20;99.90
6964;DHT22;3522;50.856;7.278;2023-12-29T04:37:40;10.20;99.90
6964;DHT22;3522;50.856;7.278;2023-12-29T04:40:07;10.20;99.90
6964;DHT22;3522;50.856;7.278;2023-12-29T04:42:35;10.20;99.90
6964;DHT22;3522;50.856;7.278;2023-12-29T04:45:01;10.10;99.90
6964;DHT22;3522;50.856;7.278;2023-12-29T04:47:28;10.10;99.90
6964;DHT22;3522;50.856;7.278;2023-12-29T04:49:54;10.10;99.90
6964;DHT22;3522;50.856;7.278;2023-12-29T04:52:21;10.10;99.90
6964;DHT22;3522;50.856;7.278;2023-12-29T04:54:48;10.10;99.90
6964;DHT22;3522;50.856;7.278;2023-12-29T04:57:14;10.10;99.90
6964;DHT22;3522;50.856;7.278;2023-12-29T04:59:42;10.10;99.90
6964;DHT22;3522;50.856;7.278;2023-12-29T05:02:09;10.10;99.90
6964;DHT22;3522;50.856;7.278;2023-12-29T05:04:35;10.10;99.90
6964;DHT22;3522;50.856;7.278;2023-12-29T05:07:03;10.10;99.90
6964;DHT22;3522;50.856;7.278;2023-12-29T05:09:29;10.10;99.90
6964;DHT22;3522;50.856;7.278;2023-12-29T05:11:56;10.20;99.90
6964;DHT22;3522;50.856;7.278;2023-12-29T05:14:23;10.20;99.90
6964;DHT22;3522;50.856;7.278;2023-12-29T05:16:51;10.20;99.90
6964;DHT22;3522;50.856;7.278;2023-12-29T05:19:17;10.10;99.90
6964;DHT22;3522;50.856;7.278;2023-12-29T05:21:44;10.10;99.90
6964;DHT22;3522;50.856;7.278;2023-12-29T05:24:11;10.10;99.90
6964;DHT22;3522;50.856;7.278;2023-12-29T05:26:37;10.10;99.90
6964;DHT22;3522;50.856;7.278;2023-12-29T05:29:04;10.10;99.90
6964;DHT22;3522;50.856;7.278;2023-12-29T05:31:30;10.10;99.90
6964;DHT22;3522;50.856;7.278;2023-12-29T05:33:58;10.10;99.90
6964;DHT22;3522;50.856;7.278;2023-12-29T05:36:25;10.10;99.90
6964;DHT22;3522;50.856;7.278;2023-12-29T05:38:51;9.90;99.90
6964;DHT22;3522;50.856;7.278;2023-12-29T05:41:18;10.10;99.90
6964;DHT22;3522;50.856;7.278;2023-12-29T05:43:45;10.00;99.90
6964;DHT22;3522;50.856;7.278;2023-12-29T05:46:11;10.00;99.90
6964;DHT22;3522;50.856;7.278;2023-12-29T05:48:38;10.00;99.90
6964;DHT22;3522;50.856;7.278;2023-12-29T05:51:09;9.90;99.90
6964;DHT22;3522;50.856;7.278;2023-12-29T05:53:36;9.90;99.90
6964;DHT22;3522;50.856;7.278;2023-12-29T05:56:02;9.90;99.90
6964;DHT22;3522;50.856;7.278;2023-12-29T05:58:29;9.90;99.90
6964;DHT22;3522;50.856;7.278;2023-12-29T06:00:56;9.90;99.90
6964;DHT22;3522;50.856;7.278;2023-12-29T06:03:23;9.90;99.90
6964;DHT22;3522;50.856;7.278;2023-12-29T06:05:49;9.90;99.90
6964;DHT22;3522;50.856;7.278;2023-12-29T06:08:17;9.90;99.90
6964;DHT22;3522;50.856;7.278;2023-12-29T06:10:44;9.90;99.90
6964;DHT22;3522;50.856;7.278;2023-12-29T06:13:10;9.90;99.90
6964;DHT22;3522;50.856;7.278;2023-12-29T06:15:37;9.90;99.90
6964;DHT22;3522;50.856;7.278;2023-12-29T06:18:04;9.80;99.90
6964;DHT22;3522;50.856;7.278;2023-12-29T06:20:30;9.80;99.90
6964;DHT22;3522;50.856;7.278;2023-12-29T06:22:57;9.80;99.90
6964;DHT22;3522;50.856;7.278;2023-12-29T06:25:25;9.90;99.90
6964;DHT22;3522;50.856;7.278;2023-12-29T06:27:51;9.90;99.90
6964;DHT22;3522;50.856;7.278;2023-12-29T06:30:18;9.90;99.90
6964;DHT22;3522;50.856;7.278;2023-12-29T06:32:45;9.90;99.90
6964;DHT22;3522;50.856;7.278;2023-12-29T06:35:12;9.90;99.90
6964;DHT22;3522;50.856;7.278;2023-12-29T06:37:39;9.90;99.90
6964;DHT22;3522;50.856;7.278;2023-12-29T06:40:08;9.90;99.90
6964;DHT22;3522;50.856;7.278;2023-12-29T06:42:36;9.80;99.90
6964;DHT22;3522;50.856;7.278;2023-12-29T06:45:03;9.90;99.90
6964;DHT22;3522;50.856;7.278;2023-12-29T06:47:30;9.90;99.90
6964;DHT22;3522;50.856;7.278;2023-12-29T06:49:56;9.80;99.90
6964;DHT22;3522;50.856;7.278;2023-12-29T06:52:23;9.90;99.90
6964;DHT22;3522;50.856;7.278;2023-12-29T06:54:49;9.80;99.90
6964;DHT22;3522;50.856;7.278;2023-12-29T06:57:16;9.80;99.90
6964;DHT22;3522;50.856;7.278;2023-12-29T06:59:44;9.80;99.90
6964;DHT22;3522;50.856;7.278;2023-12-29T07:02:10;9.80;99.90
6964;DHT22;3522;50.856;7.278;2023-12-29T07:04:40;9.80;99.90
6964;DHT22;3522;50.856;7.278;2023-12-29T07:07:07;9.80;99.90
6964;DHT22;3522;50.856;7.278;2023-12-29T07:09:33;9.80;99.90
6964;DHT22;3522;50.856;7.278;2023-12-29T07:12:00;9.80;99.90
6964;DHT22;3522;50.856;7.278;2023-12-29T07:14:26;9.80;99.90
6964;DHT22;3522;50.856;7.278;2023-12-29T07:16:54;9.70;99.90
6964;DHT22;3522;50.856;7.278;2023-12-29T07:19:21;9.70;99.90
6964;DHT22;3522;50.856;7.278;2023-12-29T07:21:47;9.70;99.90
6964;DHT22;3522;50.856;7.278;2023-12-29T07:24:14;9.70;99.90
6964;DHT22;3522;50.856;7.278;2023-12-29T07:26:40;9.80;99.90
6964;DHT22;3522;50.856;7.278;2023-12-29T07:29:07;9.80;99.90
6964;DHT22;3522;50.856;7.278;2023-12-29T07:31:37;9.80;99.90
6964;DHT22;3522;50.856;7.278;2023-12-29T07:34:05;9.80;99.90
6964;DHT22;3522;50.856;7.278;2023-12-29T07:36:32;9.80;99.90
6964;DHT22;3522;50.856;7.278;2023-12-29T07:38:58;9.80;99.90
6964;DHT22;3522;50.856;7.278;2023-12-29T07:41:25;9.90;99.90
6964;DHT22;3522;50.856;7.278;2023-12-29T07:43:52;9.80;99.90
6964;DHT22;3522;50.856;7.278;2023-12-29T07:46:23;9.90;99.90
6964;DHT22;3522;50.856;7.278;2023-12-29T07:48:49;9.80;99.90
6964;DHT22;3522;50.856;7.278;2023-12-29T07:51:18;9.90;99.90
6964;DHT22;3522;50.856;7.278;2023-12-29T07:53:44;9.90;99.90
6964;DHT22;3522;50.856;7.278;2023-12-29T07:56:11;9.80;99.90
6964;DHT22;3522;50.856;7.278;2023-12-29T07:58:37;9.80;99.90
6964;DHT22;3522;50.856;7.278;2023-12-29T08:01:04;9.90;99.90
6964;DHT22;3522;50.856;7.278;2023-12-29T08:03:30;9.90;99.90
6964;DHT22;3522;50.856;7.278;2023-12-29T08:05:57;9.90;99.90
6964;DHT22;3522;50.856;7.278;2023-12-29T08:08:25;9.90;99.90
6964;DHT22;3522;50.856;7.278;2023-12-29T08:10:51;9.90;99.90
6964;DHT22;3522;50.856;7.278;2023-12-29T08:13:18;9.90;99.90
6964;DHT22;3522;50.856;7.278;2023-12-29T08:15:44;9.80;99.90
6964;DHT22;3522;50.856;7.278;2023-12-29T08:18:11;9.80;99.90
6964;DHT22;3522;50.856;7.278;2023-12-29T08:20:37;9.80;99.90
6964;DHT22;3522;50.856;7.278;2023-12-29T08:23:04;9.80;99.90
6964;DHT22;3522;50.856;7.278;2023-12-29T08:25:32;9.80;99.90
6964;DHT22;3522;50.856;7.278;2023-12-29T08:27:58;9.80;99.90
6964;DHT22;3522;50.856;7.278;2023-12-29T08:30:25;9.80;99.90
6964;DHT22;3522;50.856;7.278;2023-12-29T08:32:51;9.80;99.90
6964;DHT22;3522;50.856;7.278;2023-12-29T08:35:18;9.70;99.90
6964;DHT22;3522;50.856;7.278;2023-12-29T08:37:44;9.70;99.90
6964;DHT22;3522;50.856;7.278;2023-12-29T08:40:11;9.70;99.90
6964;DHT22;3522;50.856;7.278;2023-12-29T08:42:39;9.70;99.90
6964;DHT22;3522;50.856;7.278;2023-12-29T08:45:06;9.70;99.90
6964;DHT22;3522;50.856;7.278;2023-12-29T08:47:32;9.70;99.90
6964;DHT22;3522;50.856;7.278;2023-12-29T08:49:59;9.70;99.90
6964;DHT22;3522;50.856;7.278;2023-12-29T08:52:27;9.80;99.90
6964;DHT22;3522;50.856;7.278;2023-12-29T08:54:53;9.80;99.90
6964;DHT22;3522;50.856;7.278;2023-12-29T08:57:20;9.70;99.90
6964;DHT22;3522;50.856;7.278;2023-12-29T08:59:48;9.70;99.90
6964;DHT22;3522;50.856;7.278;2023-12-29T09:02:14;9.70;99.90
6964;DHT22;3522;50.856;7.278;2023-12-29T09:04:41;9.70;99.90
6964;DHT22;3522;50.856;7.278;2023-12-29T09:07:07;9.70;99.90
6964;DHT22;3522;50.856;7.278;2023-12-29T09:09:34;9.70;99.90
6964;DHT22;3522;50.856;7.278;2023-12-29T09:12:00;9.80;99.90
6964;DHT22;3522;50.856;7.278;2023-12-29T09:14:27;9.80;99.90
6964;DHT22;3522;50.856;7.278;2023-12-29T09:16:56;9.80;99.90
6964;DHT22;3522;50.856;7.278;2023-12-29T09:19:23;9.90;99.90
6964;DHT22;3522;50.856;7.278;2023-12-29T09:21:50;9.90;99.90
6964;DHT22;3522;50.856;7.278;2023-12-29T09:24:17;9.90;99.90
6964;DHT22;3522;50.856;7.278;2023-12-29T09:26:43;10.00;99.90
6964;DHT22;3522;50.856;7.278;2023-12-29T09:29:10;10.10;99.90
6964;DHT22;3522;50.856;7.278;2023-12-29T09:31:36;10.10;99.90
6964;DHT22;3522;50.856;7.278;2023-12-29T09:34:04;10.10;99.90
6964;DHT22;3522;50.856;7.278;2023-12-29T09:36:31;10.10;99.90
6964;DHT22;3522;50.856;7.278;2023-12-29T09:38:57;10.20;99.90
6964;DHT22;3522;50.856;7.278;2023-12-29T09:41:24;10.20;99.90
6964;DHT22;3522;50.856;7.278;2023-12-29T09:43:52;10.20;99.90
6964;DHT22;3522;50.856;7.278;2023-12-29T09:46:19;10.10;99.90
6964;DHT22;3522;50.856;7.278;2023-12-29T09:48:48;10.10;99.90
6964;DHT22;3522;50.856;7.278;2023-12-29T09:51:19;10.10;99.90
6964;DHT22;3522;50.856;7.278;2023-12-29T09:53:48;10.00;99.90
6964;DHT22;3522;50.856;7.278;2023-12-29T09:56:15;10.00;99.90
6964;DHT22;3522;50.856;7.278;2023-12-29T09:58:42;10.10;99.90
6964;DHT22;3522;50.856;7.278;2023-12-29T10:01:09;10.10;99.90
6964;DHT22;3522;50.856;7.278;2023-12-29T10:03:36;10.10;99.90
6964;DHT22;3522;50.856;7.278;2023-12-29T10:06:03;10.10;99.90
6964;DHT22;3522;50.856;7.278;2023-12-29T10:08:34;10.20;99.90
6964;DHT22;3522;50.856;7.278;2023-12-29T10:11:03;10.20;99.90
6964;DHT22;3522;50.856;7.278;2023-12-29T10:13:30;10.20;99.90
6964;DHT22;3522;50.856;7.278;2023-12-29T10:16:02;10.20;99.90
6964;DHT22;3522;50.856;7.278;2023-12-29T10:18:31;10.20;99.90
6964;DHT22;3522;50.856;7.278;2023-12-29T10:20:59;10.20;99.90
6964;DHT22;3522;50.856;7.278;2023-12-29T10:23:28;10.20;99.90
6964;DHT22;3522;50.856;7.278;2023-12-29T10:25:59;10.20;99.90
6964;DHT22;3522;50.856;7.278;2023-12-29T10:28:26;10.30;99.90
6964;DHT22;3522;50.856;7.278;2023-12-29T10:30:52;10.30;99.90
6964;DHT22;3522;50.856;7.278;2023-12-29T10:33:19;10.30;99.90
6964;DHT22;3522;50.856;7.278;2023-12-29T10:35:55;10.30;99.90
6964;DHT22;3522;50.856;7.278;2023-12-29T10:38:22;10.30;99.90
6964;DHT22;3522;50.856;7.278;2023-12-29T10:40:49;10.40;99.90
6964;DHT22;3522;50.856;7.278;2023-12-29T10:43:17;10.40;99.90
6964;DHT22;3522;50.856;7.278;2023-12-29T10:45:47;10.40;99.90
6964;DHT22;3522;50.856;7.278;2023-12-29T10:48:20;10.50;99.90
6964;DHT22;3522;50.856;7.278;2023-12-29T10:50:47;10.50;99.90
6964;DHT22;3522;50.856;7.278;2023-12-29T10:53:14;10.50;99.90
6964;DHT22;3522;50.856;7.278;2023-12-29T10:55:42;10.50;99.90
6964;DHT22;3522;50.856;7.278;2023-12-29T10:58:08;10.50;99.90
6964;DHT22;3522;50.856;7.278;2023-12-29T11:00:36;10.60;99.90
6964;DHT22;3522;50.856;7.278;2023-12-29T11:03:03;10.60;99.90
6964;DHT22;3522;50.856;7.278;2023-12-29T11:05:30;10.60;99.90
6964;DHT22;3522;50.856;7.278;2023-12-29T11:07:56;10.60;99.90
6964;DHT22;3522;50.856;7.278;2023-12-29T11:10:24;10.70;99.90
6964;DHT22;3522;50.856;7.278;2023-12-29T11:12:51;10.70;99.90
6964;DHT22;3522;50.856;7.278;2023-12-29T11:15:18;10.70;99.90
6964;DHT22;3522;50.856;7.278;2023-12-29T11:17:46;10.70;99.90
6964;DHT22;3522;50.856;7.278;2023-12-29T11:20:16;10.70;99.90
6964;DHT22;3522;50.856;7.278;2023-12-29T11:22:45;10.70;99.90
6964;DHT22;3522;50.856;7.278;2023-12-29T11:25:12;10.70;99.90
6964;DHT22;3522;50.856;7.278;2023-12-29T11:27:39;10.70;99.90
6964;DHT22;3522;50.856;7.278;2023-12-29T11:30:07;10.70;99.90
6964;DHT22;3522;50.856;7.278;2023-12-29T11:32:36;10.70;99.90
6964;DHT22;3522;50.856;7.278;2023-12-29T11:35:12;10.70;99.90
6964;DHT22;3522;50.856;7.278;2023-12-29T11:37:47;10.70;99.90
6964;DHT22;3522;50.856;7.278;2023-12-29T11:40:18;10.70;99.90
6964;DHT22;3522;50.856;7.278;2023-12-29T11:42:45;10.70;99.90
6964;DHT22;3522;50.856;7.278;2023-12-29T11:45:23;10.70;99.90
6964;DHT22;3522;50.856;7.278;2023-12-29T11:47:50;10.80;99.90
6964;DHT22;3522;50.856;7.278;2023-12-29T11:50:28;10.80;99.90
6964;DHT22;3522;50.856;7.278;2023-12-29T11:52:56;10.80;99.90
6964;DHT22;3522;50.856;7.278;2023-12-29T11:55:24;10.90;99.90
6964;DHT22;3522;50.856;7.278;2023-12-29T11:57:54;10.80;99.90
6964;DHT22;3522;50.856;7.278;2023-12-29T12:00:20;10.80;99.90
6964;DHT22;3522;50.856;7.278;2023-12-29T12:02:47;10.80;99.90
6964;DHT22;3522;50.856;7.278;2023-12-29T12:05:25;10.80;99.90
6964;DHT22;3522;50.856;7.278;2023-12-29T12:08:12;10.90;99.90
6964;DHT22;3522;50.856;7.278;2023-12-29T12:10:52;10.90;99.90
6964;DHT22;3522;50.856;7.278;2023-12-29T12:16:00;10.90;99.90
6964;DHT22;3522;50.856;7.278;2023-12-29T12:18:26;10.90;99.90
6964;DHT22;3522;50.856;7.278;2023-12-29T12:20:53;10.90;99.90
6964;DHT22;3522;50.856;7.278;2023-12-29T12:23:21;10.90;99.90
6964;DHT22;3522;50.856;7.278;2023-12-29T12:25:49;10.90;99.90
6964;DHT22;3522;50.856;7.278;2023-12-29T12:28:16;11.00;99.90
6964;DHT22;3522;50.856;7.278;2023-12-29T12:30:42;11.00;99.90
6964;DHT22;3522;50.856;7.278;2023-12-29T12:33:09;11.00;99.90
6964;DHT22;3522;50.856;7.278;2023-12-29T12:35:39;11.00;99.90
6964;DHT22;3522;50.856;7.278;2023-12-29T12:38:06;11.00;99.90
6964;DHT22;3522;50.856;7.278;2023-12-29T12:40:34;11.00;99.90
6964;DHT22;3522;50.856;7.278;2023-12-29T12:43:01;11.00;99.90
6964;DHT22;3522;50.856;7.278;2023-12-29T12:45:28;11.00;99.90
6964;DHT22;3522;50.856;7.278;2023-12-29T12:47:59;11.00;99.90
6964;DHT22;3522;50.856;7.278;2023-12-29T12:50:26;11.00;99.90
6964;DHT22;3522;50.856;7.278;2023-12-29T12:52:53;11.00;99.90
6964;DHT22;3522;50.856;7.278;2023-12-29T12:55:19;11.10;99.90
6964;DHT22;3522;50.856;7.278;2023-12-29T12:57:47;11.10;99.90
6964;DHT22;3522;50.856;7.278;2023-12-29T13:00:14;11.10;99.90
6964;DHT22;3522;50.856;7.278;2023-12-29T13:02:41;11.00;99.90
6964;DHT22;3522;50.856;7.278;2023-12-29T13:05:10;11.00;99.90
6964;DHT22;3522;50.856;7.278;2023-12-29T13:07:36;11.00;99.90
6964;DHT22;3522;50.856;7.278;2023-12-29T13:10:03;11.00;99.90
6964;DHT22;3522;50.856;7.278;2023-12-29T13:12:30;11.00;99.90
6964;DHT22;3522;50.856;7.278;2023-12-29T13:15:05;11.00;99.90
6964;DHT22;3522;50.856;7.278;2023-12-29T13:17:33;11.10;99.90
6964;DHT22;3522;50.856;7.278;2023-12-29T13:20:00;11.00;99.90
6964;DHT22;3522;50.856;7.278;2023-12-29T13:22:27;11.00;99.90
6964;DHT22;3522;50.856;7.278;2023-12-29T13:24:54;11.00;99.90
6964;DHT22;3522;50.856;7.278;2023-12-29T13:27:21;10.90;99.90
6964;DHT22;3522;50.856;7.278;2023-12-29T13:29:48;10.90;99.90
6964;DHT22;3522;50.856;7.278;2023-12-29T13:32:16;10.90;99.90
6964;DHT22;3522;50.856;7.278;2023-12-29T13:34:48;10.90;99.90
6964;DHT22;3522;50.856;7.278;2023-12-29T13:37:17;10.80;99.90
6964;DHT22;3522;50.856;7.278;2023-12-29T13:39:45;10.90;99.90
6964;DHT22;3522;50.856;7.278;2023-12-29T13:42:17;10.80;99.90
6964;DHT22;3522;50.856;7.278;2023-12-29T13:44:45;10.80;99.90
6964;DHT22;3522;50.856;7.278;2023-12-29T13:47:12;10.70;99.90
6964;DHT22;3522;50.856;7.278;2023-12-29T13:49:40;10.80;99.90
6964;DHT22;3522;50.856;7.278;2023-12-29T13:52:08;10.80;99.90
6964;DHT22;3522;50.856;7.278;2023-12-29T13:54:40;10.70;99.90
6964;DHT22;3522;50.856;7.278;2023-12-29T13:57:06;10.80;99.90
6964;DHT22;3522;50.856;7.278;2023-12-29T13:59:33;10.80;99.90
6964;DHT22;3522;50.856;7.278;2023-12-29T14:02:02;10.70;99.90
6964;DHT22;3522;50.856;7.278;2023-12-29T14:04:29;10.70;99.90
6964;DHT22;3522;50.856;7.278;2023-12-29T14:07:00;10.70;99.90
6964;DHT22;3522;50.856;7.278;2023-12-29T14:09:27;10.70;99.90
6964;DHT22;3522;50.856;7.278;2023-12-29T14:11:55;10.60;99.90
6964;DHT22;3522;50.856;7.278;2023-12-29T14:14:22;10.60;99.90
6964;DHT22;3522;50.856;7.278;2023-12-29T14:16:49;10.50;99.90
6964;DHT22;3522;50.856;7.278;2023-12-29T14:19:16;10.40;99.90
6964;DHT22;3522;50.856;7.278;2023-12-29T14:21:43;10.40;99.90
6964;DHT22;3522;50.856;7.278;2023-12-29T14:24:12;10.30;99.90
6964;DHT22;3522;50.856;7.278;2023-12-29T14:26:40;10.30;99.90
6964;DHT22;3522;50.856;7.278;2023-12-29T14:29:10;10.20;99.90
6964;DHT22;3522;50.856;7.278;2023-12-29T14:31:37;10.20;99.90
6964;DHT22;3522;50.856;7.278;2023-12-29T14:34:04;10.10;99.90
6964;DHT22;3522;50.856;7.278;2023-12-29T14:36:31;10.10;99.90
6964;DHT22;3522;50.856;7.278;2023-12-29T14:38:58;10.00;99.90
6964;DHT22;3522;50.856;7.278;2023-12-29T14:41:26;10.00;99.90
6964;DHT22;3522;50.856;7.278;2023-12-29T14:43:53;10.00;99.90
6964;DHT22;3522;50.856;7.278;2023-12-29T14:46:19;9.90;99.90
6964;DHT22;3522;50.856;7.278;2023-12-29T14:48:46;9.90;99.90
6964;DHT22;3522;50.856;7.278;2023-12-29T14:51:12;9.90;99.90
6964;DHT22;3522;50.856;7.278;2023-12-29T14:53:39;9.90;99.90
6964;DHT22;3522;50.856;7.278;2023-12-29T14:56:06;9.90;99.90
6964;DHT22;3522;50.856;7.278;2023-12-29T14:58:34;9.90;99.90
6964;DHT22;3522;50.856;7.278;2023-12-29T15:01:01;9.90;99.90
6964;DHT22;3522;50.856;7.278;2023-12-29T15:03:28;9.90;99.90
6964;DHT22;3522;50.856;7.278;2023-12-29T15:05:55;9.90;99.90
6964;DHT22;3522;50.856;7.278;2023-12-29T15:08:21;9.80;99.90
6964;DHT22;3522;50.856;7.278;2023-12-29T15:10:49;9.90;99.90
6964;DHT22;3522;50.856;7.278;2023-12-29T15:13:15;9.90;99.90
6964;DHT22;3522;50.856;7.278;2023-12-29T15:15:43;9.90;99.90
6964;DHT22;3522;50.856;7.278;2023-12-29T15:18:10;9.90;99.90
6964;DHT22;3522;50.856;7.278;2023-12-29T15:20:36;9.90;99.90
6964;DHT22;3522;50.856;7.278;2023-12-29T15:23:03;9.90;99.90
6964;DHT22;3522;50.856;7.278;2023-12-29T15:25:30;10.00;99.90
6964;DHT22;3522;50.856;7.278;2023-12-29T15:27:56;9.90;99.90
6964;DHT22;3522;50.856;7.278;2023-12-29T15:30:23;9.90;99.90
6964;DHT22;3522;50.856;7.278;2023-12-29T15:32:51;9.90;99.90
6964;DHT22;3522;50.856;7.278;2023-12-29T15:35:17;9.90;99.90
6964;DHT22;3522;50.856;7.278;2023-12-29T15:37:44;9.90;99.90
6964;DHT22;3522;50.856;7.278;2023-12-29T15:40:10;9.90;99.90
6964;DHT22;3522;50.856;7.278;2023-12-29T15:42:37;9.90;99.90
6964;DHT22;3522;50.856;7.278;2023-12-29T15:45:04;9.80;99.90
6964;DHT22;3522;50.856;7.278;2023-12-29T15:47:30;9.80;99.90
6964;DHT22;3522;50.856;7.278;2023-12-29T15:49:58;9.70;99.90
6964;DHT22;3522;50.856;7.278;2023-12-29T15:52:25;9.70;99.90
6964;DHT22;3522;50.856;7.278;2023-12-29T15:54:53;9.70;99.90
6964;DHT22;3522;50.856;7.278;2023-12-29T15:57:20;9.70;99.90
6964;DHT22;3522;50.856;7.278;2023-12-29T15:59:46;9.60;99.90
6964;DHT22;3522;50.856;7.278;2023-12-29T16:02:13;9.60;99.90
6964;DHT22;3522;50.856;7.278;2023-12-29T16:04:39;9.60;99.90
6964;DHT22;3522;50.856;7.278;2023-12-29T16:07:07;9.60;99.90
6964;DHT22;3522;50.856;7.278;2023-12-29T16:09:34;9.60;99.90
6964;DHT22;3522;50.856;7.278;2023-12-29T16:12:00;9.50;99.90